Mr. Cass — WDB5593 — position and weather

sailwx.info

Track history (hours):
 
Tides and Currents Weather Stations Pressure Air Temp Water Temp Dewpoint Dewpoint Depression Visibility Wind Speed Wind Dir Waves Ship Positions

Mr. Cass

Owner: Cass Marine Towing LLC, Marrero, LA. More information available from US FCC via Universal Licensing System and Coast Guard Vessel Documentation Center.

Last reported at 2015-Jan-27 20:29 UTC. Time now 2015-Jan-28 04:18 UTC.
Position N 29°54' W 090°05'.

Length 17 m; draft 3.5 m.

Type: Towing. MMSI: 366911310.

Date/timePositionNaut miles runAvg speedWind from/ knotsBaromVisibWave heightAir tempDewpointWater temp
2015-Jan-27 20:29N 29°54' W 090°05'0 0.0
2015-Jan-27 19:31N 29°54' W 090°05'0 0.0
2015-Jan-27 18:31N 29°54' W 090°05'0 0.0
2015-Jan-27 17:29N 29°54' W 090°05'0 0.0
2015-Jan-26 23:05N 29°54' W 090°05'0 0.0
2015-Jan-26 21:03N 29°54' W 090°05'0 0.0
2015-Jan-26 20:24N 29°54' W 090°05'0 0.0
2015-Jan-26 19:04N 29°54' W 090°05'0 0.0
2015-Jan-26 18:17N 29°54' W 090°05'0 0.0
2015-Jan-26 16:29N 29°54' W 090°05'0 0.0
2015-Jan-25 11:31N 29°54' W 090°05'0 0.0
2015-Jan-25 10:28N 29°54' W 090°05'0 0.0
2015-Jan-25 09:18N 29°54' W 090°05'0 0.0
2015-Jan-25 08:29N 29°54' W 090°05'0 0.0
2015-Jan-25 07:33N 29°54' W 090°05'0 0.0
2015-Jan-25 06:19N 29°54' W 090°05'0 0.0
2015-Jan-25 04:31N 29°54' W 090°05'0 0.0
2015-Jan-25 03:21N 29°54' W 090°05'0 0.0
2015-Jan-25 02:25N 29°54' W 090°05'0 0.0
2015-Jan-25 01:33N 29°54' W 090°05'0 0.0
2015-Jan-25 00:19N 29°54' W 090°05'0 0.1
2015-Jan-24 22:23N 29°54' W 090°05'2 2.5
2015-Jan-24 21:33N 29°54' W 090°07'2 1.9
2015-Jan-24 20:17N 29°56' W 090°08'3 4.3
2015-Jan-24 19:33N 29°55' W 090°05'4 4.2
2015-Jan-24 18:31N 29°58' W 090°02'2 1.9
2015-Jan-24 17:30N 29°60' W 090°01'0 0.0
2015-Jan-24 16:32N 29°60' W 090°01'0 0.0
2015-Jan-24 15:32N 29°60' W 090°01'0 0.0
2015-Jan-24 13:15N 29°60' W 090°01'  
Track history (hours):
 
Tides and Currents Weather Stations Pressure Air Temp Water Temp Dewpoint Dewpoint Depression Visibility Wind Speed Wind Dir Waves Ship Positions

Mr. Cass

Owner: Cass Marine Towing LLC, Marrero, LA. More information available from US FCC via Universal Licensing System and Coast Guard Vessel Documentation Center.

Last reported at 2015-Jan-27 20:29 UTC. Time now 2015-Jan-28 04:18 UTC.
Position N 29°54' W 090°05'.

Length 17 m; draft 3.5 m.

Type: Towing. MMSI: 366911310.

Date/timePositionNaut miles runAvg speedWind from/ knotsBaromVisibWave heightAir tempDewpointWater temp
2015-Jan-27 20:29N 29°54' W 090°05'0 0.0
2015-Jan-27 19:31N 29°54' W 090°05'0 0.0
2015-Jan-27 18:31N 29°54' W 090°05'0 0.0
2015-Jan-27 17:29N 29°54' W 090°05'0 0.0
2015-Jan-26 23:05N 29°54' W 090°05'0 0.0
2015-Jan-26 21:03N 29°54' W 090°05'0 0.0
2015-Jan-26 20:24N 29°54' W 090°05'0 0.0
2015-Jan-26 19:04N 29°54' W 090°05'0 0.0
2015-Jan-26 18:17N 29°54' W 090°05'0 0.0
2015-Jan-26 16:29N 29°54' W 090°05'0 0.0
2015-Jan-25 11:31N 29°54' W 090°05'0 0.0
2015-Jan-25 10:28N 29°54' W 090°05'0 0.0
2015-Jan-25 09:18N 29°54' W 090°05'0 0.0
2015-Jan-25 08:29N 29°54' W 090°05'0 0.0
2015-Jan-25 07:33N 29°54' W 090°05'0 0.0
2015-Jan-25 06:19N 29°54' W 090°05'0 0.0
2015-Jan-25 04:31N 29°54' W 090°05'0 0.0
2015-Jan-25 03:21N 29°54' W 090°05'0 0.0
2015-Jan-25 02:25N 29°54' W 090°05'0 0.0
2015-Jan-25 01:33N 29°54' W 090°05'0 0.0
2015-Jan-25 00:19N 29°54' W 090°05'0 0.1
2015-Jan-24 22:23N 29°54' W 090°05'2 2.5
2015-Jan-24 21:33N 29°54' W 090°07'2 1.9
2015-Jan-24 20:17N 29°56' W 090°08'3 4.3
2015-Jan-24 19:33N 29°55' W 090°05'4 4.2
2015-Jan-24 18:31N 29°58' W 090°02'2 1.9
2015-Jan-24 17:30N 29°60' W 090°01'0 0.0
2015-Jan-24 16:32N 29°60' W 090°01'0 0.0
2015-Jan-24 15:32N 29°60' W 090°01'0 0.0
2015-Jan-24 13:15N 29°60' W 090°01'  

Dump ship's entire track history